Historique des mesures à Cassis (13260), France
Quotidien Résumé Mars 6, 2017 Unités:  Métrique    US   Métrique/US
« Précédent (Jour)
Suivant (Jour) »
Quotidien Hebdomadaire Mensuel Annuel Période au choix
  Maximum: Minimum: Moyenne:
Température: TemperatureC °C 11.1 °C 12.3 °C
Point de rosée: DewpointC °C 1.9 °C 6.5 °C
Humidité: Humidity % 46 % 65 %
Vitesse du vent: 0 km/h 0 km/h 18.3 km/h
Rafales: 0 km/h - -
Vent:- - WSW
Pression: PressurehPa hPa 1005.0 hPa -
Précipitations: 1.5 mm    
Historical Graphs
 
 
Mesures pour : Mars 6, 2017
Heure Temperature Point de rosée Pression Vent Vitesse du vent Rafales Humidité Pluie (par heure) Conditions
TemperatureC °C DewpointC °C PressurehPa hPa Calm     Humidity % HourlyPrecipMM mm SoftwareType W/m2
00:11 11.5 °C 7.8 °C 1012.1 hPa West 12.2 km/h 25.4 km/h 78 % 0.0 mm open2300-1.11 W/m2
01:10 11.9 °C 7.8 °C 1012.4 hPa NW 21.6 km/h 27.2 km/h 76 % 0.0 mm open2300-1.11 W/m2
02:11 12.0 °C 7.7 °C 1012.1 hPa West 10.9 km/h 10.9 km/h 75 % 0.0 mm open2300-1.11 W/m2
03:10 12.1 °C 7.8 °C 1011.4 hPa NW 5.1 km/h 5.1 km/h 75 % 0.0 mm open2300-1.11 W/m2
04:11 11.9 °C 7.0 °C 1010.7 hPa NW 17.4 km/h 17.4 km/h 72 % 0.0 mm open2300-1.11 W/m2
05:10 11.9 °C 6.8 °C 1010.7 hPa NW 20.3 km/h 20.3 km/h 71 % 0.0 mm open2300-1.11 W/m2
06:11 11.9 °C 5.7 °C 1010.4 hPa North 8 km/h 34.8 km/h 66 % 0.0 mm open2300-1.11 W/m2
07:10 11.8 °C 5.8 °C 1010.4 hPa Calm     67 % 0.0 mm open2300-1.11 W/m2
08:11 11.4 °C 6.7 °C 1010.4 hPa Calm     73 % 0.0 mm open2300-1.11 W/m2
09:10 11.1 °C 7.1 °C 1010.4 hPa Calm   4.2 km/h 76 % 0.0 mm open2300-1.11 W/m2
10:11 11.3 °C 7.6 °C 1009.7 hPa Calm   6.9 km/h 78 % 0.5 mm open2300-1.11 W/m2
11:11 11.9 °C 8.6 °C 1009.4 hPa Calm     80 % 0.0 mm open2300-1.11 W/m2
12:11 12.4 °C 9.2 °C 1008.4 hPa SSW 5.6 km/h 5.6 km/h 81 % 0.5 mm open2300-1.11 W/m2
13:10 13.2 °C 10.2 °C 1007.7 hPa West 8 km/h 33.6 km/h 82 % 0.0 mm open2300-1.11 W/m2
14:11 15.1 °C 11.7 °C 1006.7 hPa NNW 4.7 km/h 23.8 km/h 80 % 0.0 mm open2300-1.11 W/m2
15:10 15.1 °C 11.5 °C 1005.6 hPa North 11.6 km/h 29 km/h 79 % 0.0 mm open2300-1.11 W/m2
16:11 16.4 °C 9.6 °C 1005.0 hPa WNW 48.6 km/h 48.6 km/h 64 % 0.5 mm open2300-1.11 W/m2
17:10 15.9 °C 5.8 °C 1005.6 hPa West 54.9 km/h 54.9 km/h 51 % 0.0 mm open2300-1.11 W/m2
18:11 14.9 °C 4.0 °C 1005.6 hPa NNE 29 km/h 80 km/h 48 % 0.0 mm open2300-1.11 W/m2
19:10 14.2 °C 4.0 °C 1007.0 hPa WNW 40.7 km/h 40.7 km/h 50 % 0.0 mm open2300-1.11 W/m2
20:11 13.4 °C 1.9 °C 1008.0 hPa WNW 45.4 km/h 78.7 km/h 46 % 0.0 mm open2300-1.11 W/m2
21:10 12.6 °C 2.4 °C 1009.0 hPa WNW 20.3 km/h 51 km/h 50 % 0.0 mm open2300-1.11 W/m2
22:11 12.1 °C 2.5 °C 1010.0 hPa WNW 54.4 km/h 54.4 km/h 52 % 0.0 mm open2300-1.11 W/m2
23:10 11.3 °C 2.8 °C 1010.7 hPa NW 41.2 km/h 60.3 km/h 56 % 0.0 mm open2300-1.11 W/m2
Observations météo à CASSIS
WU-History script by Weather Underground - 1 mb